createdAt,value
2019-01-16T00:02:03.572Z,10.27
2019-01-16T00:04:51.842Z,10.70
2019-01-16T00:07:37.088Z,10.93
2019-01-16T00:10:23.800Z,11.00
2019-01-16T00:13:03.479Z,11.20
2019-01-16T00:15:42.519Z,11.37
2019-01-16T00:18:32.721Z,11.20
2019-01-16T00:21:20.005Z,12.20
2019-01-16T00:24:04.232Z,14.17
2019-01-16T00:26:50.624Z,13.13
2019-01-16T00:29:44.996Z,12.97
2019-01-16T00:32:48.092Z,13.70
2019-01-16T00:35:35.930Z,14.20
2019-01-16T00:38:26.748Z,14.20
2019-01-16T00:41:13.086Z,15.37
2019-01-16T00:43:53.654Z,15.50
2019-01-16T00:46:50.630Z,15.53
2019-01-16T00:49:47.448Z,15.63
2019-01-16T00:52:34.914Z,15.98
2019-01-16T00:55:21.744Z,15.53
2019-01-16T00:58:15.389Z,16.37
2019-01-16T01:01:21.163Z,16.00
2019-01-16T01:04:20.983Z,15.70
2019-01-16T01:07:10.905Z,15.50
2019-01-16T01:10:13.611Z,15.40
2019-01-16T01:13:01.967Z,15.33
2019-01-16T01:15:58.491Z,15.23
2019-01-16T01:18:42.212Z,14.10
2019-01-16T01:21:36.142Z,15.47
2019-01-16T01:24:13.502Z,14.67
2019-01-16T01:27:06.174Z,16.23
2019-01-16T01:29:59.946Z,15.97
2019-01-16T01:32:43.435Z,14.93
2019-01-16T01:35:29.974Z,14.23
2019-01-16T01:38:17.163Z,14.97
2019-01-16T01:41:14.011Z,15.00
2019-01-16T01:43:50.787Z,14.70
2019-01-16T01:46:41.352Z,14.47
2019-01-16T01:49:28.649Z,14.67
2019-01-16T01:52:22.440Z,15.10
2019-01-16T01:55:22.202Z,14.70
2019-01-16T01:58:21.911Z,14.37
2019-01-16T02:01:02.455Z,13.97
2019-01-16T02:04:05.185Z,14.13
2019-01-16T02:06:44.399Z,14.73
2019-01-16T02:09:34.986Z,14.20
2019-01-16T02:12:27.204Z,13.73
2019-01-16T02:15:15.277Z,13.93
2019-01-16T02:18:01.920Z,14.90
2019-01-16T02:20:49.702Z,13.30
2019-01-16T02:23:31.331Z,14.57
2019-01-16T02:26:21.912Z,14.17
2019-01-16T02:29:08.175Z,13.87
2019-01-16T02:32:01.805Z,13.77
2019-01-16T02:34:49.615Z,14.57
2019-01-16T02:37:32.134Z,14.80
2019-01-16T02:40:32.089Z,14.80
2019-01-16T02:43:34.947Z,13.30
2019-01-16T02:46:31.884Z,14.45
2019-01-16T02:49:08.369Z,13.37
2019-01-16T02:51:51.780Z,14.37
2019-01-16T02:54:39.627Z,14.17
2019-01-16T02:57:29.964Z,14.03
2019-01-16T03:00:04.107Z,13.33
2019-01-16T03:02:43.767Z,13.10
2019-01-16T03:05:37.555Z,13.70
2019-01-16T03:08:28.543Z,13.60
2019-01-16T03:11:05.190Z,14.17
2019-01-16T03:13:56.072Z,13.67
2019-01-16T03:16:44.520Z,13.43
2019-01-16T03:19:41.304Z,13.30
2019-01-16T03:22:47.131Z,13.47
2019-01-16T03:25:49.937Z,13.00
2019-01-16T03:28:46.707Z,13.43
2019-01-16T03:31:52.769Z,12.73
2019-01-16T03:34:43.233Z,13.10
2019-01-16T03:37:42.892Z,13.67
2019-01-16T03:40:48.659Z,12.97
2019-01-16T03:43:33.807Z,13.03
2019-01-16T03:46:11.416Z,12.73
2019-01-16T03:48:58.628Z,13.47
2019-01-16T03:51:55.403Z,13.03
2019-01-16T03:54:41.557Z,12.80
2019-01-16T03:57:38.524Z,12.73
2019-01-16T04:00:37.830Z,13.33
2019-01-16T04:03:32.425Z,12.27
2019-01-16T04:06:35.272Z,12.87
2019-01-16T04:09:23.872Z,13.63
2019-01-16T04:12:23.548Z,13.07
2019-01-16T04:15:09.725Z,12.63
2019-01-16T04:18:03.368Z,12.87
2019-01-16T04:20:54.035Z,12.13
2019-01-16T04:23:38.102Z,11.97
2019-01-16T04:26:29.077Z,11.47
2019-01-16T04:29:22.696Z,11.63
2019-01-16T04:32:09.364Z,12.43
2019-01-16T04:34:57.122Z,12.53
2019-01-16T04:37:48.002Z,11.90
2019-01-16T04:40:41.940Z,12.23
2019-01-16T04:43:41.905Z,12.03
2019-01-16T04:46:24.881Z,12.13
2019-01-16T04:49:03.371Z,11.70
2019-01-16T04:51:49.687Z,11.63
2019-01-16T04:54:46.439Z,11.33
2019-01-16T04:57:40.075Z,11.57
2019-01-16T05:00:27.615Z,11.97
2019-01-16T05:03:15.395Z,11.40
2019-01-16T05:05:52.659Z,11.37
2019-01-16T05:08:39.163Z,11.88
2019-01-16T05:11:25.367Z,11.80
2019-01-16T05:14:19.035Z,11.10
2019-01-16T05:16:59.051Z,10.73
2019-01-16T05:19:49.917Z,11.57
2019-01-16T05:22:40.437Z,11.50
2019-01-16T05:25:25.646Z,11.10
2019-01-16T05:28:20.153Z,11.47
2019-01-16T05:31:08.410Z,11.10
2019-01-16T05:33:47.917Z,10.43
2019-01-16T05:36:31.706Z,9.97
2019-01-16T05:39:25.350Z,9.90
2019-01-16T05:42:25.435Z,9.20
2019-01-16T05:45:13.226Z,9.67
2019-01-16T05:47:56.109Z,9.73
2019-01-16T05:50:40.393Z,10.13
2019-01-16T05:53:29.866Z,10.60
2019-01-16T05:56:26.597Z,9.90
2019-01-16T05:59:14.388Z,10.47
2019-01-16T06:02:01.002Z,10.57
2019-01-16T06:04:51.679Z,10.40
2019-01-16T06:07:48.339Z,10.87
2019-01-16T06:10:34.868Z,10.37
2019-01-16T06:13:22.664Z,10.37
2019-01-16T06:16:28.537Z,10.23
2019-01-16T06:19:16.351Z,10.43
2019-01-16T06:22:13.155Z,11.77
2019-01-16T06:24:59.379Z,10.60
2019-01-16T06:27:54.136Z,11.47
2019-01-16T06:30:40.756Z,11.03
2019-01-16T06:33:32.995Z,11.03
2019-01-16T06:36:33.059Z,11.13
2019-01-16T06:39:26.615Z,11.40
2019-01-16T06:42:10.118Z,10.00
2019-01-16T06:45:15.900Z,10.37
2019-01-16T06:48:02.409Z,10.33
2019-01-16T06:50:50.187Z,10.33
2019-01-16T06:53:37.994Z,9.77
2019-01-16T06:56:31.977Z,9.25
2019-01-16T06:59:19.771Z,9.60
2019-01-16T07:02:10.604Z,8.90
2019-01-16T07:05:13.691Z,9.13
2019-01-16T07:07:49.384Z,8.97
2019-01-16T07:10:37.484Z,9.48
2019-01-16T07:13:26.807Z,9.17
2019-01-16T07:16:13.174Z,8.83
2019-01-16T07:19:04.063Z,8.93
2019-01-16T07:21:57.903Z,8.70
2019-01-16T07:24:41.717Z,8.27
2019-01-16T07:27:32.531Z,7.83
2019-01-16T07:30:29.447Z,8.70
2019-01-16T07:33:15.028Z,8.40
2019-01-16T07:36:01.041Z,8.20
2019-01-16T07:38:47.545Z,7.57
2019-01-16T07:41:33.882Z,7.70
2019-01-16T07:44:37.041Z,7.17
2019-01-16T07:47:15.275Z,7.37
2019-01-16T07:50:01.828Z,6.97
2019-01-16T07:52:58.667Z,7.40
2019-01-16T07:55:47.548Z,6.60
2019-01-16T07:58:40.073Z,6.43
2019-01-16T08:01:26.462Z,6.40
2019-01-16T08:04:12.714Z,6.27
2019-01-16T08:06:59.439Z,6.13
2019-01-16T08:09:50.291Z,5.83
2019-01-16T08:12:29.155Z,6.37
2019-01-16T08:15:15.599Z,6.40
2019-01-16T08:18:06.226Z,6.23
2019-01-16T08:20:52.435Z,6.10
2019-01-16T08:23:36.223Z,5.73
2019-01-16T08:26:24.014Z,5.70
2019-01-16T08:29:20.639Z,6.03
2019-01-16T08:32:00.129Z,5.90
2019-01-16T08:34:46.330Z,6.50
2019-01-16T08:37:34.126Z,6.57
2019-01-16T08:40:20.375Z,6.60
2019-01-16T08:43:06.979Z,6.67
2019-01-16T08:46:06.908Z,6.30
2019-01-16T08:48:54.738Z,6.90
2019-01-16T08:51:35.313Z,6.33
2019-01-16T08:54:22.210Z,6.80
2019-01-16T08:57:08.467Z,6.37
2019-01-16T09:00:05.357Z,6.60
2019-01-16T09:02:51.774Z,5.83
2019-01-16T09:05:48.385Z,6.33
2019-01-16T09:08:36.714Z,6.33
2019-01-16T09:11:23.123Z,6.20
2019-01-16T09:14:17.027Z,6.10
2019-01-16T09:17:03.448Z,5.53
2019-01-16T09:19:41.079Z,5.27
2019-01-16T09:22:38.026Z,4.80
2019-01-16T09:25:34.712Z,5.13
2019-01-16T09:28:37.508Z,5.27
2019-01-16T09:31:28.487Z,4.93
2019-01-16T09:34:10.842Z,5.37
2019-01-16T09:37:07.970Z,5.33
2019-01-16T09:39:54.271Z,5.27
2019-01-16T09:42:33.454Z,5.10
2019-01-16T09:45:23.565Z,5.10
2019-01-16T09:48:09.690Z,5.37
2019-01-16T09:50:54.929Z,4.70
2019-01-16T09:53:53.187Z,4.67
2019-01-16T09:56:34.458Z,4.53
2019-01-16T09:59:19.152Z,4.87
2019-01-16T10:02:09.846Z,4.37
2019-01-16T10:05:05.124Z,4.73
2019-01-16T10:07:51.632Z,4.33
2019-01-16T10:10:37.938Z,4.07
2019-01-16T10:13:19.987Z,4.57
2019-01-16T10:16:19.979Z,4.03
2019-01-16T10:19:01.898Z,4.50
2019-01-16T10:21:48.363Z,4.67
2019-01-16T10:24:31.079Z,4.47
2019-01-16T10:27:17.531Z,4.40
2019-01-16T10:30:23.340Z,4.80
2019-01-16T10:33:28.839Z,5.03
2019-01-16T10:36:28.514Z,5.97
2019-01-16T10:39:22.083Z,5.93
2019-01-16T10:42:09.873Z,5.93
2019-01-16T10:44:50.139Z,5.27
2019-01-16T10:47:43.915Z,5.40
2019-01-16T10:50:41.616Z,5.57
2019-01-16T10:53:41.223Z,6.53
2019-01-16T10:56:35.257Z,6.40
2019-01-16T10:59:21.786Z,5.93
2019-01-16T11:02:00.773Z,6.80
2019-01-16T11:04:48.650Z,6.83
2019-01-16T11:07:30.075Z,7.57
2019-01-16T11:10:23.378Z,7.00
2019-01-16T11:13:09.634Z,6.27
2019-01-16T11:15:55.260Z,6.23
2019-01-16T11:18:58.170Z,6.70
2019-01-16T11:21:44.390Z,7.70
2019-01-16T11:24:30.822Z,8.40
2019-01-16T11:27:17.200Z,8.83
2019-01-16T11:30:04.655Z,9.43
2019-01-16T11:32:51.387Z,9.47
2019-01-16T11:35:39.176Z,10.17
2019-01-16T11:38:25.654Z,10.23
2019-01-16T11:41:08.781Z,10.47
2019-01-16T11:43:59.474Z,10.50
2019-01-16T11:46:50.129Z,10.67
2019-01-16T11:49:40.921Z,12.10
2019-01-16T11:52:31.743Z,11.43
2019-01-16T11:55:18.214Z,10.03
2019-01-16T11:58:03.968Z,11.13
2019-01-16T12:00:56.595Z,10.40
2019-01-16T12:03:49.388Z,10.00
2019-01-16T12:06:28.057Z,10.30
2019-01-16T12:09:30.967Z,9.60
2019-01-16T12:12:19.679Z,9.73
2019-01-16T12:15:16.634Z,10.07
2019-01-16T12:17:57.014Z,10.30
2019-01-16T12:21:03.098Z,9.30
2019-01-16T12:23:49.191Z,8.97
2019-01-16T12:26:25.919Z,8.30
2019-01-16T12:29:13.322Z,8.67
2019-01-16T12:32:19.085Z,8.23
2019-01-16T12:35:05.322Z,8.30
2019-01-16T12:38:12.191Z,8.20
2019-01-16T12:40:58.364Z,8.33
2019-01-16T12:43:39.373Z,8.43
2019-01-16T12:46:27.184Z,7.93
2019-01-16T12:49:29.930Z,7.20
2019-01-16T12:52:32.713Z,8.10
2019-01-16T12:55:18.922Z,7.83
2019-01-16T12:58:03.322Z,7.13
2019-01-16T13:00:54.117Z,7.80
2019-01-16T13:03:32.032Z,7.83
2019-01-16T13:06:15.059Z,8.07
2019-01-16T13:09:02.831Z,7.67
2019-01-16T13:11:42.446Z,7.80
2019-01-16T13:14:21.899Z,7.33
2019-01-16T13:17:12.955Z,7.17
2019-01-16T13:20:06.691Z,7.17
2019-01-16T13:22:54.598Z,6.80
2019-01-16T13:25:42.391Z,7.33
2019-01-16T13:28:42.376Z,7.57
2019-01-16T13:31:36.051Z,7.53
2019-01-16T13:34:19.794Z,7.03
2019-01-16T13:37:10.353Z,7.17
2019-01-16T13:40:04.236Z,7.30
2019-01-16T13:42:44.398Z,6.97
2019-01-16T13:45:31.040Z,6.63
2019-01-16T13:48:30.832Z,17.67
2019-01-16T13:51:14.530Z,7.90
2019-01-16T13:53:57.542Z,6.63
2019-01-16T13:56:45.332Z,6.77
2019-01-16T13:59:45.185Z,7.00
2019-01-16T14:02:27.984Z,6.80
2019-01-16T14:05:14.420Z,6.70
2019-01-16T14:08:02.199Z,6.83
2019-01-16T14:10:48.723Z,7.27
2019-01-16T14:13:40.154Z,6.60
2019-01-16T14:16:40.232Z,7.83
2019-01-16T14:19:21.203Z,6.63
2019-01-16T14:22:09.027Z,6.80
2019-01-16T14:24:55.515Z,7.50
2019-01-16T14:27:47.146Z,6.83
2019-01-16T14:30:38.660Z,8.27
2019-01-16T14:33:35.383Z,6.50
2019-01-16T14:36:21.815Z,7.40
2019-01-16T14:39:08.050Z,7.47
2019-01-16T14:42:07.830Z,6.90
2019-01-16T14:44:57.021Z,7.90
2019-01-16T14:47:38.923Z,6.73
2019-01-16T14:50:24.357Z,7.43
2019-01-16T14:53:15.199Z,7.70
2019-01-16T14:55:54.440Z,7.43
2019-01-16T14:58:42.282Z,7.40
2019-01-16T15:01:32.835Z,7.40
2019-01-16T15:04:19.715Z,7.67
2019-01-16T15:07:06.239Z,7.30
2019-01-16T15:09:49.576Z,7.87
2019-01-16T15:12:37.411Z,8.23
2019-01-16T15:15:37.283Z,8.20
2019-01-16T15:18:23.722Z,8.80
2019-01-16T15:21:23.602Z,8.30
2019-01-16T15:24:11.769Z,8.83
2019-01-16T15:27:02.379Z,8.73
2019-01-16T15:30:08.502Z,9.00
2019-01-16T15:33:05.196Z,8.77
2019-01-16T15:35:49.540Z,8.10
2019-01-16T15:38:35.793Z,8.03
2019-01-16T15:41:26.438Z,7.50
2019-01-16T15:44:13.007Z,7.43
2019-01-16T15:47:12.948Z,7.77
2019-01-16T15:49:59.374Z,7.50
2019-01-16T15:52:59.297Z,7.57
2019-01-16T15:55:49.915Z,8.20
2019-01-16T15:58:40.481Z,7.70
2019-01-16T16:01:37.320Z,7.67
2019-01-16T16:04:23.919Z,7.57
2019-01-16T16:07:14.743Z,7.43
2019-01-16T16:10:00.983Z,7.40
2019-01-16T16:12:47.489Z,7.67
2019-01-16T16:15:26.709Z,7.37
2019-01-16T16:18:15.491Z,6.43
2019-01-16T16:21:02.042Z,6.87
2019-01-16T16:23:43.714Z,6.97
2019-01-16T16:26:31.637Z,6.60
2019-01-16T16:29:17.110Z,6.80
2019-01-16T16:32:04.216Z,6.60
2019-01-16T16:34:50.788Z,6.63
2019-01-16T16:37:50.827Z,7.17
2019-01-16T16:40:29.113Z,7.10
2019-01-16T16:43:24.087Z,6.70
2019-01-16T16:46:21.079Z,6.53
2019-01-16T16:49:09.046Z,7.13
2019-01-16T16:51:59.956Z,7.17
2019-01-16T16:55:06.083Z,6.83
2019-01-16T16:58:00.270Z,6.13
2019-01-16T17:00:57.977Z,6.30
2019-01-16T17:03:33.990Z,6.20
2019-01-16T17:06:20.299Z,6.00
2019-01-16T17:09:20.308Z,6.27
2019-01-16T17:12:20.239Z,5.87
2019-01-16T17:15:06.546Z,6.70
2019-01-16T17:17:53.235Z,6.17
2019-01-16T17:20:44.145Z,5.93
2019-01-16T17:23:30.839Z,6.30
2019-01-16T17:26:13.436Z,5.83
2019-01-16T17:28:59.710Z,6.03
2019-01-16T17:31:47.538Z,6.03
2019-01-16T17:34:24.209Z,5.63
2019-01-16T17:37:14.922Z,5.80
2019-01-16T17:40:08.573Z,5.93
2019-01-16T17:43:05.645Z,5.70
2019-01-16T17:46:11.917Z,5.83
2019-01-16T17:48:59.722Z,5.20
2019-01-16T17:51:46.215Z,6.03
2019-01-16T17:54:37.122Z,4.93
2019-01-16T17:57:28.004Z,5.50
2019-01-16T18:00:27.931Z,5.70
2019-01-16T18:03:14.200Z,5.87
2019-01-16T18:06:00.423Z,5.43
2019-01-16T18:08:35.883Z,6.60
2019-01-16T18:11:29.649Z,5.50
2019-01-16T18:14:17.453Z,5.73
2019-01-16T18:17:04.088Z,5.60
2019-01-16T18:19:42.987Z,5.70
2019-01-16T18:22:33.860Z,5.97
2019-01-16T18:25:20.338Z,6.13
2019-01-16T18:28:23.151Z,5.87
2019-01-16T18:31:09.914Z,5.37
2019-01-16T18:34:01.028Z,6.00
2019-01-16T18:36:51.988Z,6.53
2019-01-16T18:39:42.696Z,6.07
2019-01-16T18:42:36.331Z,6.07
2019-01-16T18:45:33.718Z,5.73
2019-01-16T18:48:21.450Z,5.55
2019-01-16T18:51:18.491Z,6.10
2019-01-16T18:54:06.374Z,5.73
2019-01-16T18:56:57.013Z,5.83
2019-01-16T18:59:51.974Z,6.13
2019-01-16T19:02:38.194Z,5.73
2019-01-16T19:05:23.735Z,5.73
2019-01-16T19:08:10.080Z,6.10
2019-01-16T19:11:01.013Z,6.33
2019-01-16T19:13:51.001Z,5.90
2019-01-16T19:16:37.640Z,6.27
2019-01-16T19:19:24.095Z,6.10
2019-01-16T19:22:13.740Z,6.23
2019-01-16T19:25:01.759Z,6.23
2019-01-16T19:27:58.387Z,6.20
2019-01-16T19:30:39.079Z,6.30
2019-01-16T19:33:25.775Z,6.57
2019-01-16T19:36:17.548Z,6.40
2019-01-16T19:39:04.142Z,6.08
2019-01-16T19:42:01.070Z,6.33
2019-01-16T19:44:52.055Z,6.67
2019-01-16T19:47:39.871Z,6.80
2019-01-16T19:50:17.744Z,6.73
2019-01-16T19:53:11.695Z,7.57
2019-01-16T19:55:55.738Z,7.17
2019-01-16T19:58:42.369Z,7.70
2019-01-16T20:01:36.352Z,8.03
2019-01-16T20:04:28.712Z,7.80
2019-01-16T20:07:15.710Z,8.20
2019-01-16T20:10:06.346Z,9.30
2019-01-16T20:12:49.917Z,8.27
2019-01-16T20:15:36.495Z,8.13
2019-01-16T20:18:33.517Z,8.73
2019-01-16T20:21:36.301Z,7.87
2019-01-16T20:24:30.124Z,8.47
2019-01-16T20:27:17.220Z,9.07
2019-01-16T20:30:14.240Z,7.80
2019-01-16T20:33:14.346Z,8.87
2019-01-16T20:36:02.410Z,8.80
2019-01-16T20:38:50.445Z,8.30
2019-01-16T20:41:47.274Z,8.53
2019-01-16T20:44:37.847Z,8.90
2019-01-16T20:47:31.093Z,8.47
2019-01-16T20:50:31.716Z,8.80
2019-01-16T20:53:26.032Z,8.20
2019-01-16T20:56:32.187Z,8.13
2019-01-16T20:59:26.241Z,8.53
2019-01-16T21:02:14.018Z,8.00
2019-01-16T21:05:04.704Z,7.73
2019-01-16T21:07:58.309Z,8.03
2019-01-16T21:10:43.844Z,8.23
2019-01-16T21:13:25.753Z,8.40
2019-01-16T21:16:13.580Z,8.17
2019-01-16T21:19:01.445Z,8.20
2019-01-16T21:22:07.674Z,7.27
2019-01-16T21:25:01.686Z,7.13
2019-01-16T21:27:49.708Z,8.03
2019-01-16T21:30:32.240Z,7.97
2019-01-16T21:33:18.840Z,7.70
2019-01-16T21:36:05.434Z,7.70
2019-01-16T21:38:59.355Z,7.80
2019-01-16T21:41:47.278Z,8.20
2019-01-16T21:44:29.079Z,7.77
2019-01-16T21:47:29.248Z,7.63
2019-01-16T21:50:15.540Z,7.60
2019-01-16T21:53:01.886Z,7.90
2019-01-16T21:55:52.764Z,7.97
2019-01-16T21:58:37.622Z,7.80
2019-01-16T22:01:36.408Z,7.50
2019-01-16T22:04:30.649Z,7.70
2019-01-16T22:07:08.624Z,8.07
2019-01-16T22:09:56.741Z,8.37
2019-01-16T22:12:49.200Z,8.30
2019-01-16T22:15:39.831Z,9.13
2019-01-16T22:18:40.024Z,9.43
2019-01-16T22:21:15.690Z,9.00
2019-01-16T22:24:06.579Z,8.90
2019-01-16T22:27:03.316Z,9.37
2019-01-16T22:30:00.502Z,9.20
2019-01-16T22:32:47.005Z,9.05
2019-01-16T22:35:34.674Z,9.17
2019-01-16T22:38:22.592Z,9.20
2019-01-16T22:41:08.936Z,9.70
2019-01-16T22:43:50.704Z,10.27
2019-01-16T22:46:34.850Z,9.57
2019-01-16T22:49:25.807Z,9.67
2019-01-16T22:52:31.718Z,10.20
2019-01-16T22:55:30.173Z,10.67
2019-01-16T22:58:18.041Z,9.93
2019-01-16T23:01:25.124Z,10.53
2019-01-16T23:04:11.447Z,11.13
2019-01-16T23:06:59.275Z,11.20
2019-01-16T23:09:45.498Z,11.37
2019-01-16T23:12:32.117Z,11.75
2019-01-16T23:15:22.872Z,10.70
2019-01-16T23:18:29.055Z,10.90
2019-01-16T23:21:28.927Z,11.00
2019-01-16T23:24:25.512Z,11.37
2019-01-16T23:27:07.325Z,12.20
2019-01-16T23:29:50.329Z,12.00
2019-01-16T23:32:50.323Z,12.00
2019-01-16T23:35:33.000Z,12.80
2019-01-16T23:38:24.873Z,13.00
2019-01-16T23:41:02.079Z,13.00
2019-01-16T23:43:55.707Z,11.80
2019-01-16T23:46:43.564Z,11.40
2019-01-16T23:49:22.748Z,11.60
2019-01-16T23:52:06.989Z,11.63
2019-01-16T23:55:06.959Z,11.83
2019-01-16T23:58:10.034Z,12.10
